Time;durP1;ratioP1;P1;durP2;ratioP2;P2;SDS_P1;SDS_P2;PMS_P1;PMS_P2;Temp;Humidity;BMP_temperature;BMP_pressure;BME280_temperature;BME280_humidity;BME280_pressure;Samples;Min_cycle;Max_cycle;Signal;HPM_P1;HPM_P2
2021/12/30 00:01:39;;;;;;;3.77;3.47;;;14.80;71.90;;;;;;5098497;28;20455;-85
2021/12/30 00:04:06;;;;;;;3.23;2.97;;;14.90;72.30;;;;;;5080404;28;20452;-85
2021/12/30 00:06:39;;;;;;;11.40;7.53;;;15.00;71.90;;;;;;5094686;28;20521;-85
2021/12/30 00:09:07;;;;;;;14.13;8.50;;;15.00;71.20;;;;;;5097268;28;20853;-85
2021/12/30 00:11:34;;;;;;;4.60;3.50;;;15.20;71.00;;;;;;5075570;28;20856;-86
2021/12/30 00:14:02;;;;;;;5.43;4.63;;;15.10;71.20;;;;;;5098829;28;20447;-86
2021/12/30 00:16:29;;;;;;;6.23;3.20;;;15.20;71.10;;;;;;5103533;28;20473;-86
2021/12/30 00:18:55;;;;;;;2.80;2.40;;;15.20;71.00;;;;;;5082947;28;20493;-84
2021/12/30 00:21:23;;;;;;;2.90;2.70;;;15.30;70.90;;;;;;5070473;28;20446;-84
2021/12/30 00:23:50;;;;;;;2.20;2.00;;;15.30;70.50;;;;;;5083660;28;20463;-83
2021/12/30 00:26:19;;;;;;;2.10;1.90;;;15.30;70.70;;;;;;5100920;27;20478;-86
2021/12/30 00:28:46;;;;;;;2.40;2.20;;;15.20;71.40;;;;;;5100868;28;20436;-86
2021/12/30 00:31:15;;;;;;;2.40;2.20;;;15.20;71.30;;;;;;5113891;27;20454;-87
2021/12/30 00:33:43;;;;;;;2.30;2.10;;;15.30;70.90;;;;;;5102246;27;20458;-87
2021/12/30 00:36:11;;;;;;;2.63;2.10;;;15.10;71.70;;;;;;5086419;27;20493;-84
2021/12/30 00:38:40;;;;;;;2.40;2.20;;;15.20;71.70;;;;;;5106040;28;20565;-86
2021/12/30 00:41:08;;;;;;;2.60;2.40;;;15.30;71.30;;;;;;5102514;28;20447;-85
2021/12/30 00:43:36;;;;;;;3.00;2.70;;;15.40;70.80;;;;;;5104657;27;20477;-85
2021/12/30 00:46:04;;;;;;;2.40;1.97;;;15.50;70.60;;;;;;5091692;28;20853;-86
2021/12/30 00:48:31;;;;;;;2.00;1.80;;;15.40;70.70;;;;;;5088976;28;20450;-86
2021/12/30 00:50:58;;;;;;;2.20;2.00;;;15.40;70.90;;;;;;5105997;27;21199;-86
2021/12/30 00:53:25;;;;;;;2.40;2.00;;;15.60;70.40;;;;;;5071965;27;20451;-86
2021/12/30 00:55:52;;;;;;;4.30;2.20;;;15.60;69.90;;;;;;5085687;28;20880;-85
2021/12/30 00:58:19;;;;;;;2.67;1.77;;;15.60;69.40;;;;;;5086338;28;20463;-84
2021/12/30 01:00:47;;;;;;;2.03;1.93;;;15.40;70.30;;;;;;5082871;28;20505;-86
2021/12/30 01:03:16;;;;;;;5.73;1.67;;;15.50;70.20;;;;;;5069524;28;20557;-85
2021/12/30 01:05:44;;;;;;;2.40;1.30;;;15.60;70.10;;;;;;5071145;28;20497;-85
2021/12/30 01:08:11;;;;;;;3.33;1.50;;;15.60;69.70;;;;;;5070099;27;20992;-86
2021/12/30 01:10:39;;;;;;;1.60;1.50;;;15.60;69.70;;;;;;5082083;28;20467;-86
2021/12/30 01:13:10;;;;;;;1.53;1.43;;;15.70;69.50;;;;;;5103656;28;20469;-86
2021/12/30 01:15:48;;;;;;;3.73;1.57;;;15.70;69.20;;;;;;5083244;28;20479;-85
2021/12/30 01:18:34;;;;;;;2.63;1.40;;;15.80;68.90;;;;;;5103869;27;21086;-85
2021/12/30 01:21:01;;;;;;;1.60;1.50;;;15.90;68.50;;;;;;5066507;28;20455;-86
2021/12/30 01:23:28;;;;;;;2.50;1.10;;;16.00;68.10;;;;;;5103527;28;20459;-85
2021/12/30 01:25:56;;;;;;;1.50;1.30;;;15.90;68.30;;;;;;5104289;28;20534;-86
2021/12/30 01:28:24;;;;;;;4.03;1.30;;;16.00;68.00;;;;;;5105407;27;20514;-85
2021/12/30 01:30:51;;;;;;;4.30;1.20;;;15.90;67.90;;;;;;5090269;28;20458;-84
2021/12/30 01:33:19;;;;;;;1.40;1.30;;;15.90;67.80;;;;;;5084615;28;20478;-86
2021/12/30 01:35:46;;;;;;;2.53;1.30;;;16.00;67.70;;;;;;5089582;28;20459;-85
2021/12/30 01:38:16;;;;;;;1.50;1.13;;;15.90;67.20;;;;;;5074342;28;20463;-85
2021/12/30 01:40:45;;;;;;;1.37;1.27;;;15.80;68.00;;;;;;5084403;28;20455;-85
2021/12/30 01:43:13;;;;;;;1.70;1.17;;;15.80;67.90;;;;;;5070581;27;20447;-85
2021/12/30 01:45:42;;;;;;;1.73;1.07;;;15.90;67.50;;;;;;5103498;27;21852;-84
2021/12/30 01:48:10;;;;;;;1.53;1.30;;;15.90;68.10;;;;;;5069665;28;20443;-86
2021/12/30 01:50:39;;;;;;;1.20;1.10;;;15.80;67.40;;;;;;5103541;28;20455;-86
2021/12/30 01:53:06;;;;;;;2.10;1.00;;;15.70;67.40;;;;;;5103643;27;20474;-86
2021/12/30 01:55:35;;;;;;;4.00;1.23;;;15.60;67.70;;;;;;5086508;28;20521;-85
2021/12/30 01:58:03;;;;;;;1.90;1.10;;;15.70;67.70;;;;;;5099932;28;20864;-85
2021/12/30 02:00:31;;;;;;;8.20;1.60;;;15.70;67.20;;;;;;5100206;27;20447;-86
2021/12/30 02:02:59;;;;;;;1.63;1.10;;;15.70;67.00;;;;;;5102860;27;20958;-85
2021/12/30 02:05:26;;;;;;;1.57;1.30;;;15.80;66.90;;;;;;5092083;27;20481;-85
2021/12/30 02:07:54;;;;;;;3.27;1.10;;;15.80;65.90;;;;;;5102919;27;20455;-85
2021/12/30 02:10:21;;;;;;;2.23;1.30;;;15.70;66.10;;;;;;5089358;28;20456;-84
2021/12/30 02:12:48;;;;;;;5.03;1.53;;;15.80;66.10;;;;;;5102129;28;20954;-87
2021/12/30 02:15:17;;;;;;;2.20;1.07;;;15.40;66.60;;;;;;5088764;28;20490;-86
2021/12/30 02:17:48;;;;;;;3.10;1.77;;;15.40;66.60;;;;;;5068011;28;20981;-85
2021/12/30 02:20:40;;;;;;;2.30;1.07;;;15.40;66.30;;;;;;5083679;28;20446;-86
2021/12/30 02:23:07;;;;;;;1.20;1.10;;;15.30;66.40;;;;;;5083413;28;20460;-85
2021/12/30 02:25:34;;;;;;;3.67;1.20;;;15.40;66.40;;;;;;5064039;28;20873;-86
2021/12/30 02:28:06;;;;;;;4.53;1.13;;;15.40;65.30;;;;;;5103993;27;20470;-86
2021/12/30 02:30:34;;;;;;;2.10;1.40;;;15.30;65.80;;;;;;5099504;27;20455;-86
2021/12/30 02:33:00;;;;;;;5.40;1.37;;;15.40;65.50;;;;;;5083046;28;20439;-86
2021/12/30 02:35:28;;;;;;;2.40;1.10;;;15.20;65.20;;;;;;5103099;27;20474;-86
2021/12/30 02:37:56;;;;;;;1.40;1.00;;;15.20;65.60;;;;;;5101024;28;20982;-86
2021/12/30 02:40:25;;;;;;;4.00;1.40;;;15.30;65.80;;;;;;5100845;28;20452;-86
2021/12/30 02:42:52;;;;;;;4.10;1.57;;;15.30;65.40;;;;;;5099984;27;20444;-84
2021/12/30 02:45:19;;;;;;;6.20;1.17;;;15.20;65.00;;;;;;5085766;28;20481;-86
2021/12/30 02:47:46;;;;;;;2.53;1.40;;;15.20;65.60;;;;;;5103382;27;20977;-86
2021/12/30 02:50:13;;;;;;;1.57;1.47;;;15.30;65.60;;;;;;5102180;27;20520;-86
2021/12/30 02:52:40;;;;;;;1.97;1.10;;;15.40;64.70;;;;;;5079934;28;20454;-85
2021/12/30 02:55:09;;;;;;;1.97;0.90;;;15.40;64.80;;;;;;5080234;28;20505;-86
2021/12/30 02:57:36;;;;;;;4.43;1.20;;;15.60;64.40;;;;;;5100785;28;20521;-87
2021/12/30 03:00:05;;;;;;;1.90;0.90;;;15.40;64.20;;;;;;5105085;27;20812;-85
2021/12/30 03:02:35;;;;;;;1.97;1.00;;;15.30;64.70;;;;;;5100342;28;20954;-85
2021/12/30 03:05:02;;;;;;;3.70;1.10;;;15.50;64.60;;;;;;5100185;28;20478;-86
2021/12/30 03:07:29;;;;;;;4.20;1.27;;;15.30;64.60;;;;;;5082612;28;20459;-83
2021/12/30 03:09:56;;;;;;;3.33;1.43;;;15.40;64.30;;;;;;5105443;27;20451;-85
2021/12/30 03:12:24;;;;;;;2.17;1.40;;;15.50;64.50;;;;;;5100952;28;20930;-85
2021/12/30 03:14:51;;;;;;;4.63;1.40;;;15.60;64.20;;;;;;5106878;27;20474;-82
2021/12/30 03:17:18;;;;;;;2.03;1.10;;;15.50;64.00;;;;;;5103135;28;20442;-84
2021/12/30 03:19:45;;;;;;;4.80;1.10;;;15.50;64.10;;;;;;5102885;28;20489;-85
2021/12/30 03:22:12;;;;;;;2.80;1.10;;;15.70;64.10;;;;;;5104804;28;20458;-86
2021/12/30 03:24:39;;;;;;;1.30;1.00;;;15.80;63.90;;;;;;5106109;27;20797;-86
2021/12/30 03:27:06;;;;;;;3.83;1.17;;;15.90;63.70;;;;;;5104230;27;20950;-85
2021/12/30 03:29:35;;;;;;;2.80;1.20;;;15.90;63.50;;;;;;5106873;27;20439;-86
2021/12/30 03:32:02;;;;;;;1.90;1.40;;;15.90;63.40;;;;;;5083843;28;20459;-85
2021/12/30 03:34:29;;;;;;;3.50;1.30;;;15.90;63.30;;;;;;5084051;28;20471;-85
2021/12/30 03:36:56;;;;;;;2.80;1.10;;;15.80;63.30;;;;;;5086295;28;20477;-85
2021/12/30 03:39:22;;;;;;;4.23;1.10;;;15.90;63.50;;;;;;5079379;28;20818;-85
2021/12/30 03:41:49;;;;;;;4.37;1.27;;;15.80;63.50;;;;;;5086271;28;20462;-85
2021/12/30 03:44:16;;;;;;;2.50;1.37;;;15.80;63.50;;;;;;5099524;28;20486;-86
2021/12/30 03:46:44;;;;;;;2.00;1.23;;;15.80;63.50;;;;;;5105017;27;20524;-85
2021/12/30 03:49:11;;;;;;;2.20;1.27;;;15.80;63.40;;;;;;5089145;28;20447;-86
2021/12/30 03:51:39;;;;;;;5.47;1.10;;;15.70;63.50;;;;;;5082734;28;20992;-85
2021/12/30 03:54:07;;;;;;;4.30;1.27;;;15.70;63.60;;;;;;5085703;28;20452;-85
2021/12/30 03:56:35;;;;;;;3.30;1.67;;;15.70;63.50;;;;;;5085804;28;20456;-86
2021/12/30 03:59:03;;;;;;;2.50;1.47;;;15.60;63.80;;;;;;5101329;28;20510;-86
2021/12/30 04:01:30;;;;;;;7.30;2.63;;;15.60;63.70;;;;;;5102730;28;20533;-86
2021/12/30 04:03:59;;;;;;;2.40;1.40;;;15.50;63.80;;;;;;5101737;27;20490;-86
2021/12/30 04:06:27;;;;;;;4.50;1.50;;;15.40;63.80;;;;;;5100495;28;20498;-86
2021/12/30 04:08:55;;;;;;;5.50;1.63;;;15.50;64.70;;;;;;5103148;28;20449;-86
2021/12/30 04:11:24;;;;;;;8.43;1.23;;;15.40;63.90;;;;;;5081321;28;20454;-86
2021/12/30 04:13:51;;;;;;;4.07;1.17;;;15.50;63.90;;;;;;5071648;28;20504;-84
2021/12/30 04:16:19;;;;;;;3.17;1.70;;;15.60;63.70;;;;;;5101908;28;20474;-86
2021/12/30 04:18:48;;;;;;;2.60;1.10;;;15.70;63.60;;;;;;5100304;28;20468;-86
2021/12/30 04:21:17;;;;;;;1.30;1.20;;;15.70;63.20;;;;;;5084052;28;21242;-86
2021/12/30 04:23:44;;;;;;;1.20;1.00;;;15.70;63.30;;;;;;5102855;28;20439;-86
2021/12/30 04:26:12;;;;;;;2.13;1.47;;;15.70;63.30;;;;;;5102598;28;20490;-86
2021/12/30 04:28:39;;;;;;;3.17;1.20;;;15.70;63.20;;;;;;5085514;28;20504;-86
2021/12/30 04:31:07;;;;;;;1.93;1.10;;;15.80;63.30;;;;;;5099217;28;20460;-86
2021/12/30 04:33:34;;;;;;;4.20;1.20;;;15.80;63.10;;;;;;5083902;28;20451;-86
2021/12/30 04:36:01;;;;;;;2.73;1.23;;;15.90;63.00;;;;;;5084778;28;20456;-86
2021/12/30 04:38:31;;;;;;;2.63;1.57;;;15.90;62.90;;;;;;5065832;28;20463;-86
2021/12/30 04:40:59;;;;;;;4.00;1.23;;;15.90;62.90;;;;;;5105604;28;20443;-86
2021/12/30 04:43:26;;;;;;;2.27;1.40;;;15.80;63.10;;;;;;5089459;28;20466;-86
2021/12/30 04:45:53;;;;;;;3.43;1.30;;;15.70;63.00;;;;;;5106182;28;20854;-85
2021/12/30 04:48:21;;;;;;;8.53;1.93;;;15.70;63.30;;;;;;5101686;28;20447;-84
2021/12/30 04:50:48;;;;;;;2.27;1.80;;;15.60;63.70;;;;;;5098498;28;20459;-86
2021/12/30 04:53:16;;;;;;;2.17;1.50;;;15.60;63.60;;;;;;5078954;28;20461;-86
2021/12/30 04:55:45;;;;;;;2.70;1.33;;;15.60;63.50;;;;;;5070380;28;20570;-86
2021/12/30 04:58:12;;;;;;;4.20;1.17;;;15.70;63.50;;;;;;5103621;28;20463;-86
2021/12/30 05:00:39;;;;;;;3.20;2.20;;;15.70;63.50;;;;;;5101624;28;20497;-86
2021/12/30 05:03:11;;;;;;;7.47;1.70;;;15.60;64.10;;;;;;5102210;28;20464;-86
2021/12/30 05:05:40;;;;;;;4.93;1.53;;;15.50;64.80;;;;;;5105092;28;20957;-86
2021/12/30 05:08:07;;;;;;;2.23;1.10;;;15.40;64.90;;;;;;5070906;28;20452;-86
2021/12/30 05:10:34;;;;;;;6.93;1.73;;;15.40;65.30;;;;;;5100431;28;20458;-86
2021/12/30 05:13:04;;;;;;;3.93;1.53;;;15.40;65.50;;;;;;5084985;28;20974;-86
2021/12/30 05:15:31;;;;;;;5.03;1.70;;;15.30;65.50;;;;;;5085325;28;20475;-85
2021/12/30 05:17:57;;;;;;;5.60;1.97;;;15.30;65.80;;;;;;5104264;28;20438;-86
2021/12/30 05:20:24;;;;;;;3.33;1.67;;;15.30;65.70;;;;;;5108517;28;20553;-85
2021/12/30 05:22:52;;;;;;;3.63;2.10;;;15.40;65.70;;;;;;5083577;28;20451;-86
2021/12/30 05:25:20;;;;;;;8.83;2.33;;;15.50;66.10;;;;;;5091992;28;20477;-86
2021/12/30 05:27:48;;;;;;;4.20;2.40;;;15.50;66.00;;;;;;5105145;27;20454;-86
2021/12/30 05:30:16;;;;;;;3.07;2.13;;;15.50;66.60;;;;;;5106541;28;20443;-85
2021/12/30 05:32:45;;;;;;;3.87;1.63;;;15.60;66.70;;;;;;5090205;28;20439;-86
2021/12/30 05:35:13;;;;;;;2.80;1.70;;;15.50;66.90;;;;;;5103784;27;20575;-87
2021/12/30 05:37:41;;;;;;;4.97;1.30;;;15.50;67.10;;;;;;5087665;27;20451;-86
2021/12/30 05:40:12;;;;;;;6.10;2.23;;;15.50;67.20;;;;;;5091488;28;20468;-86
2021/12/30 05:42:39;;;;;;;3.60;1.30;;;15.50;67.40;;;;;;5086430;28;20514;-86
2021/12/30 05:45:07;;;;;;;3.73;1.50;;;15.50;67.50;;;;;;5084554;28;20471;-87
2021/12/30 05:47:36;;;;;;;4.67;1.50;;;15.50;67.70;;;;;;5088010;28;20470;-85
2021/12/30 05:50:04;;;;;;;5.23;1.63;;;15.60;67.40;;;;;;5086154;28;21082;-86
2021/12/30 05:52:31;;;;;;;4.40;1.60;;;15.60;67.20;;;;;;5087279;28;20455;-86
2021/12/30 05:54:58;;;;;;;4.90;1.80;;;15.50;68.00;;;;;;5102920;28;20470;-86
2021/12/30 05:57:25;;;;;;;5.10;1.60;;;15.50;67.80;;;;;;5104011;28;20466;-86
2021/12/30 05:59:52;;;;;;;3.23;1.93;;;15.60;67.70;;;;;;5087557;28;20483;-86
2021/12/30 06:02:20;;;;;;;2.50;1.50;;;15.70;67.70;;;;;;5088807;28;21094;-86
2021/12/30 06:04:48;;;;;;;4.47;1.63;;;15.80;67.60;;;;;;5087360;28;20486;-86
2021/12/30 06:07:15;;;;;;;9.20;2.53;;;15.80;67.80;;;;;;5094940;28;20466;-86
2021/12/30 06:09:42;;;;;;;3.50;1.83;;;15.70;68.20;;;;;;5086497;28;20451;-86
2021/12/30 06:12:09;;;;;;;5.87;2.43;;;15.70;68.00;;;;;;5108292;27;21043;-86
2021/12/30 06:14:36;;;;;;;4.70;2.47;;;15.70;68.10;;;;;;5104820;28;20474;-87
2021/12/30 06:17:04;;;;;;;6.53;1.87;;;15.80;68.10;;;;;;5085876;28;20541;-85
2021/12/30 06:19:31;;;;;;;3.70;1.80;;;15.80;67.80;;;;;;5088115;28;20849;-86
2021/12/30 06:21:59;;;;;;;4.50;2.23;;;15.90;67.40;;;;;;5082825;28;20463;-85
2021/12/30 06:24:26;;;;;;;3.13;1.63;;;15.90;67.60;;;;;;5084833;28;20451;-86
2021/12/30 06:26:53;;;;;;;10.80;2.90;;;15.90;68.10;;;;;;5070526;28;20448;-83
2021/12/30 06:29:20;;;;;;;11.47;4.20;;;15.80;68.50;;;;;;5109515;27;20447;-86
2021/12/30 06:31:47;;;;;;;18.27;8.90;;;15.90;68.10;;;;;;5088234;28;20467;-86
2021/12/30 06:34:14;;;;;;;23.93;9.20;;;15.70;69.10;;;;;;5104183;28;20469;-85
2021/12/30 06:36:42;;;;;;;19.00;8.40;;;15.80;68.60;;;;;;5088190;28;20453;-86
2021/12/30 06:39:10;;;;;;;11.60;8.20;;;15.90;68.60;;;;;;5098500;28;20475;-86
2021/12/30 06:41:37;;;;;;;15.53;8.40;;;16.00;68.30;;;;;;5102361;28;20462;-86
2021/12/30 06:44:05;;;;;;;30.90;11.43;;;16.10;68.10;;;;;;5084357;28;20459;-86
2021/12/30 06:46:32;;;;;;;16.47;7.67;;;16.10;67.70;;;;;;5105387;27;20470;-85
2021/12/30 06:48:58;;;;;;;12.07;7.50;;;16.20;67.70;;;;;;5105483;28;20470;-86
2021/12/30 06:51:28;;;;;;;8.00;5.23;;;16.20;67.40;;;;;;5104091;28;20533;-86
2021/12/30 06:53:55;;;;;;;11.10;6.00;;;16.10;67.30;;;;;;5065490;28;20969;-86
2021/12/30 06:56:24;;;;;;;10.43;4.50;;;16.00;67.90;;;;;;5080791;28;20483;-86
2021/12/30 06:58:51;;;;;;;5.03;4.13;;;15.80;69.20;;;;;;5084810;28;20455;-86
2021/12/30 07:01:18;;;;;;;6.13;4.23;;;15.90;68.70;;;;;;5079472;28;20842;-86
2021/12/30 07:03:45;;;;;;;4.30;3.10;;;16.10;68.20;;;;;;5102286;28;20459;-86
2021/12/30 07:06:13;;;;;;;10.33;5.83;;;16.10;67.70;;;;;;5064250;27;20482;-86
2021/12/30 07:08:40;;;;;;;7.50;5.70;;;16.00;68.10;;;;;;5080089;27;20999;-86
2021/12/30 07:11:07;;;;;;;6.53;3.67;;;16.00;68.10;;;;;;5061788;28;20474;-86
2021/12/30 07:13:36;;;;;;;5.53;4.17;;;16.00;69.20;;;;;;5078136;28;20954;-87
2021/12/30 07:16:02;;;;;;;3.23;2.93;;;16.00;69.40;;;;;;5099558;28;20573;-87
2021/12/30 07:18:30;;;;;;;3.30;2.90;;;16.10;69.30;;;;;;5096880;27;20452;-87
2021/12/30 07:20:57;;;;;;;2.80;2.60;;;16.10;69.40;;;;;;5100419;27;20479;-86
2021/12/30 07:23:23;;;;;;;4.70;2.57;;;16.10;69.50;;;;;;5081694;27;20461;-87
2021/12/30 07:25:52;;;;;;;7.10;4.03;;;16.00;69.90;;;;;;5082658;27;20470;-87
2021/12/30 07:28:19;;;;;;;8.87;5.33;;;16.10;70.00;;;;;;5063512;28;20439;-87
2021/12/30 07:30:48;;;;;;;6.03;4.60;;;16.10;70.20;;;;;;5099475;28;20450;-87
2021/12/30 07:33:14;;;;;;;3.30;2.10;;;16.00;70.80;;;;;;5102179;27;20455;-86
2021/12/30 07:35:41;;;;;;;2.40;2.20;;;16.00;71.20;;;;;;5095502;28;21190;-85
2021/12/30 07:38:08;;;;;;;10.97;6.30;;;16.10;71.30;;;;;;5084119;28;20811;-86
2021/12/30 07:40:36;;;;;;;13.17;7.00;;;16.20;70.60;;;;;;5055485;28;21011;-84
2021/12/30 07:43:03;;;;;;;11.07;6.93;;;16.30;70.10;;;;;;5103839;27;20446;-86
2021/12/30 07:45:30;;;;;;;32.97;19.97;;;16.30;69.90;;;;;;5063567;28;20498;-87
2021/12/30 07:47:58;;;;;;;24.70;13.73;;;16.20;69.70;;;;;;5068101;28;20869;-86
2021/12/30 07:50:25;;;;;;;18.40;13.23;;;16.00;70.20;;;;;;5098594;28;20977;-86
2021/12/30 07:52:53;;;;;;;14.87;10.23;;;16.10;70.10;;;;;;5099567;28;21115;-86
2021/12/30 07:55:20;;;;;;;13.73;7.70;;;16.00;70.10;;;;;;5098304;27;20484;-86
2021/12/30 07:57:47;;;;;;;11.27;8.33;;;15.80;71.10;;;;;;5096240;28;20835;-86
2021/12/30 08:00:17;;;;;;;7.13;5.73;;;15.90;71.20;;;;;;5098274;28;20473;-86
2021/12/30 08:02:45;;;;;;;5.87;4.20;;;16.00;70.80;;;;;;5076685;28;20447;-87
2021/12/30 08:05:15;;;;;;;5.07;4.57;;;16.10;70.90;;;;;;5075446;28;20470;-88
2021/12/30 08:07:45;;;;;;;3.53;3.23;;;16.10;70.80;;;;;;5065680;28;20505;-85
2021/12/30 08:10:14;;;;;;;6.87;6.17;;;16.00;71.30;;;;;;5079249;28;20963;-88
2021/12/30 08:12:43;;;;;;;5.93;5.33;;;15.80;72.40;;;;;;5078614;28;20448;-88
2021/12/30 08:15:12;;;;;;;10.40;7.07;;;16.00;71.90;;;;;;5099840;28;20474;-87
2021/12/30 08:17:40;;;;;;;10.70;8.80;;;16.10;71.20;;;;;;5079593;28;20464;-87
2021/12/30 08:20:09;;;;;;;7.43;6.73;;;16.20;71.10;;;;;;5057802;28;20477;-87
2021/12/30 08:22:38;;;;;;;6.10;5.43;;;16.30;71.50;;;;;;5076359;28;20968;-88
2021/12/30 08:25:06;;;;;;;7.87;6.40;;;16.40;71.40;;;;;;5096027;28;20509;-87
2021/12/30 08:27:34;;;;;;;11.20;9.80;;;16.50;70.90;;;;;;5080792;28;20460;-87
2021/12/30 08:30:01;;;;;;;9.07;6.90;;;16.60;70.40;;;;;;5096613;28;20458;-86
2021/12/30 08:32:28;;;;;;;3.70;3.37;;;16.60;70.00;;;;;;5078006;28;20529;-85
2021/12/30 08:34:55;;;;;;;4.90;3.70;;;16.60;71.00;;;;;;5094054;28;20527;-85
2021/12/30 08:37:22;;;;;;;7.53;3.00;;;16.50;71.60;;;;;;5059678;28;21168;-88
2021/12/30 08:39:51;;;;;;;4.57;4.17;;;16.30;72.70;;;;;;5073976;28;21004;-87
2021/12/30 08:42:20;;;;;;;7.67;6.07;;;16.40;72.40;;;;;;5093379;28;20439;-87
2021/12/30 08:44:48;;;;;;;5.50;5.00;;;16.50;72.20;;;;;;5060454;28;20990;-87
2021/12/30 08:47:16;;;;;;;6.10;5.50;;;16.50;72.80;;;;;;5083291;28;20451;-87
2021/12/30 08:49:45;;;;;;;9.80;7.37;;;16.70;72.10;;;;;;5102674;27;20447;-87
2021/12/30 08:52:12;;;;;;;8.67;7.27;;;16.80;71.30;;;;;;5079995;28;20770;-86
2021/12/30 08:54:39;;;;;;;6.60;4.90;;;17.00;70.80;;;;;;5099954;28;20489;-87
2021/12/30 08:57:08;;;;;;;13.07;10.17;;;16.90;70.70;;;;;;5100818;27;20451;-87
2021/12/30 08:59:36;;;;;;;6.63;5.70;;;17.00;70.40;;;;;;5099749;28;20458;-86
2021/12/30 09:02:04;;;;;;;6.90;5.00;;;17.00;70.30;;;;;;5080208;28;20447;-87
2021/12/30 09:04:31;;;;;;;6.50;3.70;;;17.10;70.50;;;;;;5101733;28;20509;-87
2021/12/30 09:06:58;;;;;;;5.03;3.87;;;17.10;70.80;;;;;;5085223;27;20464;-86
2021/12/30 09:09:26;;;;;;;4.77;4.10;;;17.10;71.40;;;;;;5087868;28;20431;-86
2021/12/30 09:11:53;;;;;;;9.73;6.83;;;17.20;70.60;;;;;;5082881;28;20938;-86
2021/12/30 09:14:22;;;;;;;6.23;5.30;;;17.30;70.90;;;;;;5062729;28;20446;-85
2021/12/30 09:16:50;;;;;;;9.63;6.67;;;17.30;70.40;;;;;;5089272;28;20459;-88
2021/12/30 09:19:17;;;;;;;6.10;4.50;;;17.40;70.20;;;;;;5081289;28;21037;-88
2021/12/30 09:21:45;;;;;;;3.03;2.83;;;17.40;70.20;;;;;;5091471;28;20509;-87
2021/12/30 09:24:13;;;;;;;13.57;7.10;;;17.40;70.00;;;;;;5102516;28;20479;-87
2021/12/30 09:26:40;;;;;;;18.30;9.50;;;17.30;70.70;;;;;;5081439;28;20447;-88
2021/12/30 09:29:11;;;;;;;15.53;9.73;;;17.40;71.00;;;;;;5082139;27;20446;-87
2021/12/30 09:31:41;;;;;;;11.43;7.13;;;17.30;71.20;;;;;;5108597;27;20843;-88
2021/12/30 09:34:09;;;;;;;7.10;6.40;;;17.40;71.60;;;;;;5101909;28;20447;-87
2021/12/30 09:36:37;;;;;;;13.10;10.57;;;17.50;71.90;;;;;;5071688;28;20474;-87
2021/12/30 09:39:05;;;;;;;8.87;7.30;;;17.50;70.60;;;;;;5083449;28;20455;-87
2021/12/30 09:41:32;;;;;;;6.30;4.73;;;17.50;70.80;;;;;;5092320;28;20566;-88
2021/12/30 09:43:59;;;;;;;6.63;5.53;;;17.50;70.50;;;;;;5099790;28;20440;-88
2021/12/30 09:46:26;;;;;;;8.60;4.90;;;17.70;70.60;;;;;;5081249;28;20471;-87
2021/12/30 09:48:55;;;;;;;7.47;6.60;;;17.70;70.30;;;;;;5103751;27;20486;-86
2021/12/30 09:51:22;;;;;;;13.20;10.43;;;17.50;70.70;;;;;;5102311;27;20478;-87
2021/12/30 09:53:51;;;;;;;13.73;11.73;;;17.40;71.00;;;;;;5070988;28;20457;-88
2021/12/30 09:56:19;;;;;;;8.60;6.70;;;17.40;70.60;;;;;;5065485;28;21093;-88
2021/12/30 09:58:47;;;;;;;8.73;7.60;;;17.30;71.10;;;;;;5099243;27;20458;-87
2021/12/30 10:01:15;;;;;;;6.17;5.23;;;17.30;71.30;;;;;;5069625;28;20476;-87
2021/12/30 10:03:43;;;;;;;6.17;5.03;;;17.40;71.10;;;;;;5098040;28;20541;-87
2021/12/30 10:06:13;;;;;;;7.80;5.03;;;17.50;70.70;;;;;;5097511;28;20538;-87
2021/12/30 10:08:52;;;;;;;3.60;3.30;;;17.60;70.40;;;;;;5084078;28;20582;-87
2021/12/30 10:11:19;;;;;;;3.13;2.83;;;17.60;70.80;;;;;;5067440;28;21027;-87
2021/12/30 10:13:51;;;;;;;4.30;3.67;;;17.50;70.90;;;;;;5100430;27;20451;-87
2021/12/30 10:16:18;;;;;;;4.73;4.23;;;17.50;70.60;;;;;;5096322;28;20470;-89
2021/12/30 10:18:48;;;;;;;8.13;7.27;;;17.60;70.60;;;;;;5097760;28;21052;-88
2021/12/30 10:21:19;;;;;;;2.37;2.17;;;17.50;70.80;;;;;;5080209;28;20728;-88
2021/12/30 10:23:48;;;;;;;3.83;3.47;;;17.30;71.90;;;;;;5097325;28;20469;-88
2021/12/30 10:26:15;;;;;;;2.90;2.70;;;17.40;71.80;;;;;;5070639;28;20480;-88
2021/12/30 10:28:44;;;;;;;2.40;2.30;;;17.50;71.20;;;;;;5059645;28;20451;-88
2021/12/30 10:31:22;;;;;;;14.77;8.40;;;17.40;71.10;;;;;;5084808;28;20458;-87
2021/12/30 10:33:52;;;;;;;2.67;2.47;;;17.10;72.00;;;;;;5059918;28;21022;-88
2021/12/30 10:36:22;;;;;;;4.07;3.80;;;16.90;72.70;;;;;;5095477;27;21038;-88
2021/12/30 10:38:50;;;;;;;1.63;1.53;;;17.00;73.40;;;;;;5079881;28;20451;-87
2021/12/30 10:41:17;;;;;;;2.03;1.83;;;17.10;72.60;;;;;;5097616;27;20483;-88
2021/12/30 10:43:47;;;;;;;2.20;2.10;;;17.30;72.20;;;;;;5062599;28;21013;-87
2021/12/30 10:46:17;;;;;;;2.40;2.30;;;17.20;72.10;;;;;;5092883;27;20475;-88
2021/12/30 10:48:51;;;;;;;2.07;1.97;;;17.20;72.00;;;;;;5059017;28;20550;-88
2021/12/30 10:51:22;;;;;;;2.20;2.10;;;17.20;72.80;;;;;;5051292;28;20451;-87
2021/12/30 10:53:50;;;;;;;2.90;2.13;;;17.40;71.60;;;;;;5081979;27;20454;-87
2021/12/30 10:56:22;;;;;;;4.57;3.30;;;17.50;71.20;;;;;;5083410;28;20467;-88
2021/12/30 10:58:50;;;;;;;3.10;2.90;;;17.50;71.30;;;;;;5096101;28;20439;-88
2021/12/30 11:01:19;;;;;;;2.33;2.23;;;17.40;71.10;;;;;;5062465;28;21058;-88
2021/12/30 11:03:55;;;;;;;2.03;1.93;;;17.70;71.00;;;;;;5052129;28;20444;-87
2021/12/30 11:06:24;;;;;;;2.67;2.47;;;17.60;70.50;;;;;;5096885;28;20507;-87
2021/12/30 11:09:07;;;;;;;2.10;2.00;;;17.50;70.70;;;;;;5060964;27;20447;-87
2021/12/30 11:11:34;;;;;;;3.00;2.80;;;17.50;71.20;;;;;;5095223;28;20458;-88
2021/12/30 11:14:04;;;;;;;2.73;2.33;;;17.60;71.20;;;;;;5065123;28;20447;-87
2021/12/30 11:16:32;;;;;;;2.33;1.93;;;17.60;70.80;;;;;;5065945;28;20471;-87
2021/12/30 11:18:59;;;;;;;2.00;1.80;;;17.70;70.60;;;;;;5092170;28;20464;-87
2021/12/30 11:21:39;;;;;;;1.97;1.87;;;17.80;69.90;;;;;;5059134;28;20458;-88
2021/12/30 11:24:08;;;;;;;2.40;2.20;;;17.80;69.90;;;;;;5078339;28;20519;-87
2021/12/30 11:26:36;;;;;;;1.93;1.83;;;17.70;70.20;;;;;;5098502;28;20509;-87
2021/12/30 11:29:05;;;;;;;2.87;2.67;;;17.90;70.00;;;;;;5098202;27;20575;-86
2021/12/30 11:31:33;;;;;;;4.67;2.17;;;17.90;69.90;;;;;;5085045;28;21127;-85
2021/12/30 11:34:01;;;;;;;4.40;2.30;;;17.90;70.50;;;;;;5096902;28;20634;-82
2021/12/30 11:36:29;;;;;;;1.83;1.73;;;17.90;70.30;;;;;;5078495;28;21161;-87
2021/12/30 11:39:00;;;;;;;2.07;1.97;;;17.90;69.80;;;;;;5096258;27;20557;-85
2021/12/30 11:41:28;;;;;;;10.70;6.30;;;18.10;69.70;;;;;;5079295;28;20492;-85
2021/12/30 11:43:56;;;;;;;2.17;2.07;;;18.20;69.40;;;;;;5061409;28;20455;-84
2021/12/30 11:46:39;;;;;;;2.33;2.20;;;18.10;69.20;;;;;;5091042;28;20483;-86
2021/12/30 11:49:07;;;;;;;3.50;3.30;;;18.00;69.60;;;;;;5080660;28;20459;-85
2021/12/30 11:51:46;;;;;;;2.47;2.27;;;18.20;69.00;;;;;;5094408;28;20463;-86
2021/12/30 11:54:35;;;;;;;1.80;1.70;;;18.10;69.50;;;;;;5073738;28;20759;-86
2021/12/30 11:57:25;;;;;;;1.30;1.20;;;18.10;68.90;;;;;;5072103;28;20455;-85
2021/12/30 11:59:52;;;;;;;2.00;1.90;;;18.10;69.10;;;;;;5095671;28;20543;-86
2021/12/30 12:02:27;;;;;;;1.80;1.70;;;18.10;69.20;;;;;;5094225;28;20470;-85
2021/12/30 12:04:54;;;;;;;1.77;1.67;;;18.20;68.90;;;;;;5071682;28;20473;-85
2021/12/30 12:07:22;;;;;;;1.87;1.77;;;18.30;68.70;;;;;;5093449;28;20465;-85
2021/12/30 12:09:51;;;;;;;2.47;2.17;;;18.30;68.70;;;;;;5076456;28;20996;-86
2021/12/30 12:12:32;;;;;;;9.20;4.87;;;18.30;68.90;;;;;;5065089;28;20464;-86
2021/12/30 12:15:02;;;;;;;2.60;2.40;;;18.20;68.60;;;;;;5061546;28;21001;-84
2021/12/30 12:17:38;;;;;;;1.60;1.50;;;18.20;68.80;;;;;;5073683;28;20530;-86
2021/12/30 12:20:19;;;;;;;2.20;2.00;;;18.10;68.60;;;;;;5092566;28;20572;-86
2021/12/30 12:22:46;;;;;;;2.50;1.83;;;18.10;68.90;;;;;;5099403;28;20471;-86
2021/12/30 12:25:16;;;;;;;2.60;2.37;;;18.10;69.30;;;;;;5086336;28;20475;-85
2021/12/30 12:27:46;;;;;;;2.33;1.40;;;17.90;69.60;;;;;;5081697;28;20449;-86
2021/12/30 12:30:29;;;;;;;4.57;1.57;;;17.70;70.20;;;;;;5066887;28;20493;-87
2021/12/30 12:32:57;;;;;;;1.87;1.77;;;17.80;70.10;;;;;;5070211;28;20983;-86
2021/12/30 12:35:27;;;;;;;1.83;1.73;;;17.80;70.20;;;;;;5080299;27;20552;-86
2021/12/30 12:37:59;;;;;;;1.90;1.63;;;18.00;69.50;;;;;;5102186;28;20454;-86
2021/12/30 12:40:38;;;;;;;2.47;1.67;;;18.00;69.20;;;;;;5091554;28;20467;-86
2021/12/30 12:43:09;;;;;;;2.10;1.77;;;18.10;69.40;;;;;;5099537;27;20435;-86
2021/12/30 12:45:40;;;;;;;3.30;3.10;;;17.90;69.70;;;;;;5081210;28;20525;-85
2021/12/30 12:48:32;;;;;;;2.20;2.10;;;18.00;69.00;;;;;;5088360;28;20545;-86
2021/12/30 12:51:03;;;;;;;2.80;2.00;;;18.10;69.10;;;;;;5063060;27;20958;-85
2021/12/30 12:53:41;;;;;;;1.83;1.70;;;18.20;68.60;;;;;;5079117;28;20442;-86